sensor_id;sensor_type;location;lat;lon;timestamp;pressure;altitude;pressure_sealevel;temperature;humidity
44979;BME280;67464;52.438;-1.904;2023-02-26T00:02:22;100926.57;;;4.52;61.63
44979;BME280;67464;52.438;-1.904;2023-02-26T00:04:48;100929.43;;;4.57;61.10
44979;BME280;67464;52.438;-1.904;2023-02-26T00:07:13;100936.34;;;4.34;64.12
44979;BME280;67464;52.438;-1.904;2023-02-26T00:09:38;100940.53;;;3.75;64.58
44979;BME280;67464;52.438;-1.904;2023-02-26T00:12:04;100945.39;;;2.80;70.12
44979;BME280;67464;52.438;-1.904;2023-02-26T00:14:29;100945.12;;;3.14;72.93
44979;BME280;67464;52.438;-1.904;2023-02-26T00:17:07;100938.54;;;3.96;66.48
44979;BME280;67464;52.438;-1.904;2023-02-26T00:19:20;100934.72;;;3.05;70.29
44979;BME280;67464;52.438;-1.904;2023-02-26T00:21:45;100938.75;;;3.43;69.62
44979;BME280;67464;52.438;-1.904;2023-02-26T00:24:10;100940.50;;;2.59;72.85
44979;BME280;67464;52.438;-1.904;2023-02-26T00:26:35;100944.72;;;2.66;75.03
44979;BME280;67464;52.438;-1.904;2023-02-26T00:29:02;100942.54;;;2.39;74.22
44979;BME280;67464;52.438;-1.904;2023-02-26T00:31:26;100943.93;;;2.32;77.10
44979;BME280;67464;52.438;-1.904;2023-02-26T00:33:52;100941.01;;;2.91;75.05
44979;BME280;67464;52.438;-1.904;2023-02-26T00:36:20;100932.78;;;3.18;74.32
44979;BME280;67464;52.438;-1.904;2023-02-26T00:38:42;100934.50;;;3.32;72.02
44979;BME280;67464;52.438;-1.904;2023-02-26T00:41:07;100932.88;;;3.62;68.47
44979;BME280;67464;52.438;-1.904;2023-02-26T00:43:32;100935.18;;;4.01;67.86
44979;BME280;67464;52.438;-1.904;2023-02-26T00:46:03;100937.57;;;3.86;69.61
44979;BME280;67464;52.438;-1.904;2023-02-26T00:48:33;100938.05;;;3.94;68.85
44979;BME280;67464;52.438;-1.904;2023-02-26T00:50:54;100939.30;;;3.38;67.19
44979;BME280;67464;52.438;-1.904;2023-02-26T00:53:17;100941.63;;;4.43;64.32
44979;BME280;67464;52.438;-1.904;2023-02-26T00:55:39;100943.98;;;3.56;70.31
44979;BME280;67464;52.438;-1.904;2023-02-26T00:58:04;100951.06;;;2.35;73.19
44979;BME280;67464;52.438;-1.904;2023-02-26T01:00:29;100950.29;;;2.81;75.23
44979;BME280;67464;52.438;-1.904;2023-02-26T01:02:54;100954.58;;;2.42;79.40
44979;BME280;67464;52.438;-1.904;2023-02-26T01:05:20;100949.76;;;3.40;73.54
44979;BME280;67464;52.438;-1.904;2023-02-26T01:07:51;100950.34;;;4.07;71.30
44979;BME280;67464;52.438;-1.904;2023-02-26T01:10:11;100952.02;;;3.80;65.66
44979;BME280;67464;52.438;-1.904;2023-02-26T01:12:36;100949.18;;;4.96;64.05
44979;BME280;67464;52.438;-1.904;2023-02-26T01:15:01;100956.44;;;3.52;65.18
44979;BME280;67464;52.438;-1.904;2023-02-26T01:17:28;100960.62;;;3.64;67.42
44979;BME280;67464;52.438;-1.904;2023-02-26T01:19:53;100961.58;;;4.26;65.58
44979;BME280;67464;52.438;-1.904;2023-02-26T01:22:20;100967.10;;;3.83;68.25
44979;BME280;67464;52.438;-1.904;2023-02-26T01:24:42;100976.36;;;2.85;70.75
44979;BME280;67464;52.438;-1.904;2023-02-26T01:27:06;100980.21;;;2.87;74.59
44979;BME280;67464;52.438;-1.904;2023-02-26T01:29:32;100986.65;;;2.78;73.09
44979;BME280;67464;52.438;-1.904;2023-02-26T01:32:02;100983.15;;;3.18;69.79
44979;BME280;67464;52.438;-1.904;2023-02-26T01:34:27;100980.46;;;3.39;69.68
44979;BME280;67464;52.438;-1.904;2023-02-26T01:36:53;100978.84;;;3.36;70.62
44979;BME280;67464;52.438;-1.904;2023-02-26T01:39:17;100984.29;;;3.61;64.89
44979;BME280;67464;52.438;-1.904;2023-02-26T01:41:42;100987.38;;;4.09;66.24
44979;BME280;67464;52.438;-1.904;2023-02-26T01:44:10;100981.80;;;3.61;65.11
44979;BME280;67464;52.438;-1.904;2023-02-26T01:46:33;100982.01;;;3.71;65.22
44979;BME280;67464;52.438;-1.904;2023-02-26T01:48:56;100987.73;;;3.69;66.16
44979;BME280;67464;52.438;-1.904;2023-02-26T01:53:44;100992.75;;;3.03;65.25
44979;BME280;67464;52.438;-1.904;2023-02-26T01:56:14;100988.44;;;3.86;64.42
44979;BME280;67464;52.438;-1.904;2023-02-26T01:58:35;100996.63;;;3.14;67.44
44979;BME280;67464;52.438;-1.904;2023-02-26T02:01:01;100991.89;;;3.59;68.51
44979;BME280;67464;52.438;-1.904;2023-02-26T02:03:27;100995.76;;;3.82;64.95
44979;BME280;67464;52.438;-1.904;2023-02-26T02:05:54;100995.88;;;4.25;61.79
44979;BME280;67464;52.438;-1.904;2023-02-26T02:08:16;100995.45;;;4.02;62.20
44979;BME280;67464;52.438;-1.904;2023-02-26T02:10:42;100996.43;;;4.41;62.27
44979;BME280;67464;52.438;-1.904;2023-02-26T02:13:12;100996.06;;;4.57;60.77
44979;BME280;67464;52.438;-1.904;2023-02-26T02:15:38;101002.13;;;4.11;63.67
44979;BME280;67464;52.438;-1.904;2023-02-26T02:18:03;100999.79;;;3.59;63.84
44979;BME280;67464;52.438;-1.904;2023-02-26T02:23:01;100995.41;;;3.95;64.21
44979;BME280;67464;52.438;-1.904;2023-02-26T02:27:43;101010.72;;;3.36;66.89
44979;BME280;67464;52.438;-1.904;2023-02-26T02:30:09;101009.99;;;3.38;71.33
44979;BME280;67464;52.438;-1.904;2023-02-26T02:32:30;101003.38;;;3.34;70.31
44979;BME280;67464;52.438;-1.904;2023-02-26T02:34:57;100994.95;;;4.06;65.36
44979;BME280;67464;52.438;-1.904;2023-02-26T02:37:22;100996.42;;;4.02;64.73
44979;BME280;67464;52.438;-1.904;2023-02-26T02:39:46;101005.27;;;2.87;71.56
44979;BME280;67464;52.438;-1.904;2023-02-26T02:42:17;100998.74;;;3.41;68.78
44979;BME280;67464;52.438;-1.904;2023-02-26T02:44:37;100996.15;;;3.39;68.86
44979;BME280;67464;52.438;-1.904;2023-02-26T02:46:59;100996.42;;;3.62;69.06
44979;BME280;67464;52.438;-1.904;2023-02-26T02:49:28;101000.66;;;2.77;72.52
44979;BME280;67464;52.438;-1.904;2023-02-26T02:51:51;101001.62;;;3.05;71.49
44979;BME280;67464;52.438;-1.904;2023-02-26T02:54:18;101006.14;;;2.99;71.07
44979;BME280;67464;52.438;-1.904;2023-02-26T02:56:43;101002.36;;;3.45;68.90
44979;BME280;67464;52.438;-1.904;2023-02-26T02:59:11;101003.44;;;2.12;75.00
44979;BME280;67464;52.438;-1.904;2023-02-26T03:01:30;101011.15;;;2.23;80.61
44979;BME280;67464;52.438;-1.904;2023-02-26T03:03:57;101012.93;;;2.00;80.16
44979;BME280;67464;52.438;-1.904;2023-02-26T03:06:19;101014.60;;;2.97;74.06
44979;BME280;67464;52.438;-1.904;2023-02-26T03:08:46;101014.89;;;2.80;75.54
44979;BME280;67464;52.438;-1.904;2023-02-26T03:11:10;101014.63;;;3.24;74.15
44979;BME280;67464;52.438;-1.904;2023-02-26T03:13:35;101016.50;;;2.35;77.21
44979;BME280;67464;52.438;-1.904;2023-02-26T03:16:17;101022.50;;;2.56;77.19
44979;BME280;67464;52.438;-1.904;2023-02-26T03:18:33;101013.03;;;2.22;78.77
44979;BME280;67464;52.438;-1.904;2023-02-26T03:20:58;101018.11;;;1.91;80.28
44979;BME280;67464;52.438;-1.904;2023-02-26T03:23:20;101024.79;;;1.68;81.24
44979;BME280;67464;52.438;-1.904;2023-02-26T03:25:45;101026.04;;;1.41;83.61
44979;BME280;67464;52.438;-1.904;2023-02-26T03:28:17;101028.32;;;1.86;81.61
44979;BME280;67464;52.438;-1.904;2023-02-26T03:30:36;101024.66;;;1.99;81.81
44979;BME280;67464;52.438;-1.904;2023-02-26T03:33:02;101023.16;;;2.15;82.49
44979;BME280;67464;52.438;-1.904;2023-02-26T03:35:28;101026.45;;;2.17;81.72
44979;BME280;67464;52.438;-1.904;2023-02-26T03:37:49;101032.76;;;3.06;75.44
44979;BME280;67464;52.438;-1.904;2023-02-26T03:40:17;101036.05;;;3.06;73.69
44979;BME280;67464;52.438;-1.904;2023-02-26T03:42:42;101037.59;;;3.39;72.29
44979;BME280;67464;52.438;-1.904;2023-02-26T03:45:05;101034.14;;;3.40;71.39
44979;BME280;67464;52.438;-1.904;2023-02-26T03:47:29;101030.37;;;4.03;68.59
44979;BME280;67464;52.438;-1.904;2023-02-26T03:49:56;101026.73;;;3.76;68.05
44979;BME280;67464;52.438;-1.904;2023-02-26T03:52:20;101031.20;;;4.17;67.52
44979;BME280;67464;52.438;-1.904;2023-02-26T03:54:47;101034.57;;;3.93;67.62
44979;BME280;67464;52.438;-1.904;2023-02-26T03:57:09;101041.85;;;3.34;69.33
44979;BME280;67464;52.438;-1.904;2023-02-26T03:59:34;101038.67;;;3.81;69.01
44979;BME280;67464;52.438;-1.904;2023-02-26T04:02:02;101041.99;;;4.20;66.44
44979;BME280;67464;52.438;-1.904;2023-02-26T04:04:27;101047.94;;;3.64;67.53
44979;BME280;67464;52.438;-1.904;2023-02-26T04:06:50;101049.45;;;2.85;73.03
44979;BME280;67464;52.438;-1.904;2023-02-26T04:09:15;101048.23;;;2.29;76.71
44979;BME280;67464;52.438;-1.904;2023-02-26T04:11:40;101054.36;;;3.34;73.23
44979;BME280;67464;52.438;-1.904;2023-02-26T04:14:05;101057.50;;;2.90;73.12
44979;BME280;67464;52.438;-1.904;2023-02-26T04:16:31;101060.28;;;2.83;74.86
44979;BME280;67464;52.438;-1.904;2023-02-26T04:18:56;101060.45;;;3.10;74.53
44979;BME280;67464;52.438;-1.904;2023-02-26T04:21:22;101057.48;;;3.07;73.13
44979;BME280;67464;52.438;-1.904;2023-02-26T04:23:47;101055.24;;;2.41;78.96
44979;BME280;67464;52.438;-1.904;2023-02-26T04:26:12;101056.01;;;2.54;78.62
44979;BME280;67464;52.438;-1.904;2023-02-26T04:28:38;101058.53;;;3.48;72.70
44979;BME280;67464;52.438;-1.904;2023-02-26T04:31:03;101057.22;;;3.13;70.81
44979;BME280;67464;52.438;-1.904;2023-02-26T04:33:28;101055.32;;;2.57;72.38
44979;BME280;67464;52.438;-1.904;2023-02-26T04:35:53;101061.94;;;2.54;78.54
44979;BME280;67464;52.438;-1.904;2023-02-26T04:38:18;101072.68;;;2.27;77.81
44979;BME280;67464;52.438;-1.904;2023-02-26T04:40:43;101072.56;;;3.00;76.48
44979;BME280;67464;52.438;-1.904;2023-02-26T04:43:08;101081.45;;;2.75;72.07
44979;BME280;67464;52.438;-1.904;2023-02-26T04:45:33;101079.41;;;3.09;73.05
44979;BME280;67464;52.438;-1.904;2023-02-26T04:47:58;101081.10;;;3.20;71.22
44979;BME280;67464;52.438;-1.904;2023-02-26T04:50:24;101091.58;;;2.56;75.09
44979;BME280;67464;52.438;-1.904;2023-02-26T04:52:48;101095.94;;;2.21;79.53
44979;BME280;67464;52.438;-1.904;2023-02-26T04:55:14;101098.33;;;1.42;83.00
44979;BME280;67464;52.438;-1.904;2023-02-26T04:57:39;101104.67;;;0.83;90.64
44979;BME280;67464;52.438;-1.904;2023-02-26T05:00:05;101098.53;;;0.87;94.57
44979;BME280;67464;52.438;-1.904;2023-02-26T05:02:29;101098.56;;;0.94;99.41
44979;BME280;67464;52.438;-1.904;2023-02-26T05:04:55;101097.59;;;0.87;99.59
44979;BME280;67464;52.438;-1.904;2023-02-26T05:07:20;101104.70;;;0.79;97.40
44979;BME280;67464;52.438;-1.904;2023-02-26T05:09:45;101098.79;;;0.47;100.00
44979;BME280;67464;52.438;-1.904;2023-02-26T05:12:11;101093.79;;;1.21;98.09
44979;BME280;67464;52.438;-1.904;2023-02-26T05:14:36;101094.91;;;1.90;89.69
44979;BME280;67464;52.438;-1.904;2023-02-26T05:17:01;101098.78;;;1.79;88.70
44979;BME280;67464;52.438;-1.904;2023-02-26T05:19:26;101102.87;;;1.51;91.15
44979;BME280;67464;52.438;-1.904;2023-02-26T05:21:51;101104.80;;;1.51;93.14
44979;BME280;67464;52.438;-1.904;2023-02-26T05:24:17;101105.66;;;1.63;88.81
44979;BME280;67464;52.438;-1.904;2023-02-26T05:26:42;101108.52;;;2.57;79.67
44979;BME280;67464;52.438;-1.904;2023-02-26T05:29:07;101107.83;;;2.08;80.79
44979;BME280;67464;52.438;-1.904;2023-02-26T05:31:33;101113.09;;;1.70;88.93
44979;BME280;67464;52.438;-1.904;2023-02-26T05:33:58;101117.69;;;1.56;91.25
44979;BME280;67464;52.438;-1.904;2023-02-26T05:36:24;101118.17;;;1.80;89.56
44979;BME280;67464;52.438;-1.904;2023-02-26T05:38:49;101119.21;;;1.91;85.19
44979;BME280;67464;52.438;-1.904;2023-02-26T05:41:14;101121.72;;;1.32;89.33
44979;BME280;67464;52.438;-1.904;2023-02-26T05:43:40;101122.79;;;1.54;91.10
44979;BME280;67464;52.438;-1.904;2023-02-26T05:46:05;101123.93;;;1.33;93.66
44979;BME280;67464;52.438;-1.904;2023-02-26T05:48:30;101119.64;;;2.00;88.03
44979;BME280;67464;52.438;-1.904;2023-02-26T05:50:55;101127.63;;;1.39;91.07
44979;BME280;67464;52.438;-1.904;2023-02-26T05:53:20;101129.26;;;1.27;93.99
44979;BME280;67464;52.438;-1.904;2023-02-26T05:55:46;101130.64;;;0.83;100.00
44979;BME280;67464;52.438;-1.904;2023-02-26T05:58:11;101135.24;;;0.80;100.00
44979;BME280;67464;52.438;-1.904;2023-02-26T06:00:36;101137.49;;;0.89;96.95
44979;BME280;67464;52.438;-1.904;2023-02-26T06:03:02;101134.12;;;0.79;94.50
44979;BME280;67464;52.438;-1.904;2023-02-26T06:05:26;101140.78;;;1.50;93.64
44979;BME280;67464;52.438;-1.904;2023-02-26T06:07:51;101140.60;;;1.81;89.68
44979;BME280;67464;52.438;-1.904;2023-02-26T06:10:17;101139.65;;;1.68;88.95
44979;BME280;67464;52.438;-1.904;2023-02-26T06:12:43;101145.36;;;0.83;98.21
44979;BME280;67464;52.438;-1.904;2023-02-26T06:15:08;101144.64;;;1.85;90.98
44979;BME280;67464;52.438;-1.904;2023-02-26T06:17:33;101148.94;;;1.92;85.86
44979;BME280;67464;52.438;-1.904;2023-02-26T06:19:58;101145.20;;;1.69;85.44
44979;BME280;67464;52.438;-1.904;2023-02-26T06:22:23;101148.01;;;1.71;87.53
44979;BME280;67464;52.438;-1.904;2023-02-26T06:24:49;101149.34;;;2.84;78.90
44979;BME280;67464;52.438;-1.904;2023-02-26T06:27:13;101151.33;;;3.00;75.84
44979;BME280;67464;52.438;-1.904;2023-02-26T06:29:38;101148.59;;;2.41;77.70
44979;BME280;67464;52.438;-1.904;2023-02-26T06:32:04;101160.75;;;1.93;82.90
44979;BME280;67464;52.438;-1.904;2023-02-26T06:34:29;101165.40;;;2.00;84.50
44979;BME280;67464;52.438;-1.904;2023-02-26T06:36:54;101166.60;;;2.00;82.25
44979;BME280;67464;52.438;-1.904;2023-02-26T06:39:20;101170.33;;;1.30;89.18
44979;BME280;67464;52.438;-1.904;2023-02-26T06:41:45;101173.03;;;1.28;92.11
44979;BME280;67464;52.438;-1.904;2023-02-26T06:44:10;101175.73;;;1.55;90.34
44979;BME280;67464;52.438;-1.904;2023-02-26T06:46:35;101179.10;;;1.44;90.63
44979;BME280;67464;52.438;-1.904;2023-02-26T06:49:00;101189.94;;;1.63;88.31
44979;BME280;67464;52.438;-1.904;2023-02-26T06:51:25;101187.60;;;0.77;94.74
44979;BME280;67464;52.438;-1.904;2023-02-26T06:53:51;101188.98;;;0.81;97.61
44979;BME280;67464;52.438;-1.904;2023-02-26T06:56:16;101191.36;;;1.50;89.94
44979;BME280;67464;52.438;-1.904;2023-02-26T06:58:41;101191.30;;;1.42;88.07
44979;BME280;67464;52.438;-1.904;2023-02-26T07:01:06;101188.18;;;2.52;82.38
44979;BME280;67464;52.438;-1.904;2023-02-26T07:03:31;101186.16;;;2.01;80.95
44979;BME280;67464;52.438;-1.904;2023-02-26T07:05:56;101194.79;;;1.90;85.86
44979;BME280;67464;52.438;-1.904;2023-02-26T07:08:22;101197.66;;;1.37;89.50
44979;BME280;67464;52.438;-1.904;2023-02-26T07:10:47;101199.66;;;2.04;83.74
44979;BME280;67464;52.438;-1.904;2023-02-26T07:13:13;101203.64;;;1.94;83.47
44979;BME280;67464;52.438;-1.904;2023-02-26T07:15:38;101203.57;;;2.49;81.55
44979;BME280;67464;52.438;-1.904;2023-02-26T07:18:03;101201.70;;;2.41;79.12
44979;BME280;67464;52.438;-1.904;2023-02-26T07:20:29;101202.48;;;2.44;78.68
44979;BME280;67464;52.438;-1.904;2023-02-26T07:22:54;101207.26;;;2.33;80.58
44979;BME280;67464;52.438;-1.904;2023-02-26T07:25:19;101213.62;;;2.29;78.48
44979;BME280;67464;52.438;-1.904;2023-02-26T07:27:44;101216.46;;;2.17;79.57
44979;BME280;67464;52.438;-1.904;2023-02-26T07:30:11;101226.01;;;1.97;85.84
44979;BME280;67464;52.438;-1.904;2023-02-26T07:32:35;101229.65;;;2.41;83.75
44979;BME280;67464;52.438;-1.904;2023-02-26T07:35:00;101226.41;;;2.05;82.76
44979;BME280;67464;52.438;-1.904;2023-02-26T07:37:26;101232.70;;;1.17;90.34
44979;BME280;67464;52.438;-1.904;2023-02-26T07:39:51;101234.77;;;1.87;87.98
44979;BME280;67464;52.438;-1.904;2023-02-26T07:42:17;101236.92;;;2.71;81.45
44979;BME280;67464;52.438;-1.904;2023-02-26T07:44:42;101239.12;;;2.55;80.32
44979;BME280;67464;52.438;-1.904;2023-02-26T07:47:07;101237.29;;;3.86;71.63
44979;BME280;67464;52.438;-1.904;2023-02-26T07:49:33;101238.99;;;3.46;77.09
44979;BME280;67464;52.438;-1.904;2023-02-26T07:51:59;101241.02;;;3.79;74.94
44979;BME280;67464;52.438;-1.904;2023-02-26T07:54:23;101250.57;;;3.95;67.76
44979;BME280;67464;52.438;-1.904;2023-02-26T07:56:49;101245.45;;;5.13;64.05
44979;BME280;67464;52.438;-1.904;2023-02-26T07:59:14;101252.97;;;4.97;64.61
44979;BME280;67464;52.438;-1.904;2023-02-26T08:01:39;101255.78;;;4.50;63.10
44979;BME280;67464;52.438;-1.904;2023-02-26T08:04:04;101262.46;;;4.26;67.46
44979;BME280;67464;52.438;-1.904;2023-02-26T08:06:29;101256.50;;;4.85;67.74
44979;BME280;67464;52.438;-1.904;2023-02-26T08:08:54;101253.76;;;4.91;63.55
44979;BME280;67464;52.438;-1.904;2023-02-26T08:11:20;101258.24;;;4.48;62.30
44979;BME280;67464;52.438;-1.904;2023-02-26T08:13:45;101263.90;;;4.89;63.54
44979;BME280;67464;52.438;-1.904;2023-02-26T08:16:10;101267.69;;;4.87;64.79
44979;BME280;67464;52.438;-1.904;2023-02-26T08:18:35;101275.00;;;4.47;67.20
44979;BME280;67464;52.438;-1.904;2023-02-26T08:21:01;101275.26;;;4.63;64.92
44979;BME280;67464;52.438;-1.904;2023-02-26T08:23:26;101277.94;;;5.47;65.79
44979;BME280;67464;52.438;-1.904;2023-02-26T08:26:00;101277.50;;;6.60;59.38
44979;BME280;67464;52.438;-1.904;2023-02-26T08:28:16;101282.71;;;6.62;57.53
44979;BME280;67464;52.438;-1.904;2023-02-26T08:30:42;101288.09;;;6.32;58.17
44979;BME280;67464;52.438;-1.904;2023-02-26T08:33:08;101289.19;;;6.75;57.29
44979;BME280;67464;52.438;-1.904;2023-02-26T08:35:33;101295.25;;;8.32;51.15
44979;BME280;67464;52.438;-1.904;2023-02-26T08:37:58;101293.75;;;9.59;47.96
44979;BME280;67464;52.438;-1.904;2023-02-26T08:40:24;101295.42;;;10.82;45.01
44979;BME280;67464;52.438;-1.904;2023-02-26T08:42:50;101296.41;;;11.18;41.94
44979;BME280;67464;52.438;-1.904;2023-02-26T08:45:16;101298.92;;;11.62;40.48
44979;BME280;67464;52.438;-1.904;2023-02-26T08:47:42;101303.51;;;12.54;40.17
44979;BME280;67464;52.438;-1.904;2023-02-26T08:50:09;101296.94;;;14.36;36.77
44979;BME280;67464;52.438;-1.904;2023-02-26T08:52:33;101304.37;;;11.79;39.74
44979;BME280;67464;52.438;-1.904;2023-02-26T08:54:58;101312.22;;;13.47;37.61
44979;BME280;67464;52.438;-1.904;2023-02-26T08:57:24;101312.06;;;12.78;37.32
44979;BME280;67464;52.438;-1.904;2023-02-26T08:59:50;101311.22;;;12.47;38.55
44979;BME280;67464;52.438;-1.904;2023-02-26T09:02:15;101310.38;;;11.88;38.07
44979;BME280;67464;52.438;-1.904;2023-02-26T09:04:41;101317.28;;;9.54;42.10
44979;BME280;67464;52.438;-1.904;2023-02-26T09:07:06;101328.53;;;7.60;46.73
44979;BME280;67464;52.438;-1.904;2023-02-26T09:09:32;101339.31;;;6.30;50.65
44979;BME280;67464;52.438;-1.904;2023-02-26T09:11:57;101345.82;;;5.05;57.76
44979;BME280;67464;52.438;-1.904;2023-02-26T09:14:23;101347.17;;;5.10;56.86
44979;BME280;67464;52.438;-1.904;2023-02-26T09:16:49;101343.19;;;3.77;64.75
44979;BME280;67464;52.438;-1.904;2023-02-26T09:19:15;101342.75;;;3.59;69.54
44979;BME280;67464;52.438;-1.904;2023-02-26T09:21:41;101345.70;;;3.61;72.23
44979;BME280;67464;52.438;-1.904;2023-02-26T09:24:07;101354.61;;;3.77;74.79
44979;BME280;67464;52.438;-1.904;2023-02-26T09:26:32;101349.55;;;4.16;68.71
44979;BME280;67464;52.438;-1.904;2023-02-26T09:28:58;101352.26;;;5.62;64.36
44979;BME280;67464;52.438;-1.904;2023-02-26T09:31:23;101349.06;;;6.01;60.64
44979;BME280;67464;52.438;-1.904;2023-02-26T09:33:50;101353.15;;;6.24;57.61
44979;BME280;67464;52.438;-1.904;2023-02-26T09:36:15;101351.34;;;6.93;55.33
44979;BME280;67464;52.438;-1.904;2023-02-26T09:38:40;101350.28;;;7.33;53.19
44979;BME280;67464;52.438;-1.904;2023-02-26T09:41:08;101351.33;;;8.57;50.61
44979;BME280;67464;52.438;-1.904;2023-02-26T09:46:00;101360.25;;;11.00;44.30
44979;BME280;67464;52.438;-1.904;2023-02-26T09:48:23;101350.53;;;12.22;40.24
44979;BME280;67464;52.438;-1.904;2023-02-26T09:50:51;101347.23;;;14.11;36.27
44979;BME280;67464;52.438;-1.904;2023-02-26T09:53:17;101362.24;;;13.10;39.03
44979;BME280;67464;52.438;-1.904;2023-02-26T09:55:42;101356.58;;;15.43;34.65
44979;BME280;67464;52.438;-1.904;2023-02-26T09:58:11;101360.68;;;15.60;32.87
44979;BME280;67464;52.438;-1.904;2023-02-26T10:00:35;101362.25;;;14.80;33.90
44979;BME280;67464;52.438;-1.904;2023-02-26T10:03:02;101369.60;;;15.22;33.52
44979;BME280;67464;52.438;-1.904;2023-02-26T10:05:26;101368.24;;;15.09;33.01
44979;BME280;67464;52.438;-1.904;2023-02-26T10:07:54;101369.39;;;14.90;33.28
44979;BME280;67464;52.438;-1.904;2023-02-26T10:10:19;101373.56;;;14.89;33.83
44979;BME280;67464;52.438;-1.904;2023-02-26T10:12:40;101382.90;;;13.52;35.08
44979;BME280;67464;52.438;-1.904;2023-02-26T10:15:08;101383.62;;;13.66;36.05
44979;BME280;67464;52.438;-1.904;2023-02-26T10:17:32;101380.34;;;14.57;33.09
44979;BME280;67464;52.438;-1.904;2023-02-26T10:19:59;101381.05;;;15.23;32.35
44979;BME280;67464;52.438;-1.904;2023-02-26T10:22:25;101379.35;;;15.06;32.61
44979;BME280;67464;52.438;-1.904;2023-02-26T10:24:48;101375.71;;;15.63;32.82
44979;BME280;67464;52.438;-1.904;2023-02-26T10:27:14;101380.81;;;13.60;32.51
44979;BME280;67464;52.438;-1.904;2023-02-26T10:29:39;101394.62;;;14.28;34.05
44979;BME280;67464;52.438;-1.904;2023-02-26T10:32:14;101395.67;;;11.47;35.92
44979;BME280;67464;52.438;-1.904;2023-02-26T10:34:31;101395.44;;;11.35;36.57
44979;BME280;67464;52.438;-1.904;2023-02-26T10:36:59;101388.36;;;13.61;33.93
44979;BME280;67464;52.438;-1.904;2023-02-26T10:39:27;101401.64;;;12.15;36.86
44979;BME280;67464;52.438;-1.904;2023-02-26T10:41:45;101400.81;;;12.52;34.85
44979;BME280;67464;52.438;-1.904;2023-02-26T10:44:16;101399.60;;;13.98;34.39
44979;BME280;67464;52.438;-1.904;2023-02-26T10:46:43;101401.58;;;12.83;35.26
44979;BME280;67464;52.438;-1.904;2023-02-26T10:51:31;101398.17;;;15.14;32.28
44979;BME280;67464;52.438;-1.904;2023-02-26T10:53:56;101399.18;;;14.44;33.10
44979;BME280;67464;52.438;-1.904;2023-02-26T10:56:21;101405.25;;;13.91;33.33
44979;BME280;67464;52.438;-1.904;2023-02-26T10:58:55;101413.56;;;14.21;33.73
44979;BME280;67464;52.438;-1.904;2023-02-26T11:01:13;101416.26;;;13.26;33.85
44979;BME280;67464;52.438;-1.904;2023-02-26T11:03:38;101419.53;;;14.32;33.58
44979;BME280;67464;52.438;-1.904;2023-02-26T11:06:00;101432.89;;;9.41;39.13
44979;BME280;67464;52.438;-1.904;2023-02-26T11:08:27;101426.23;;;8.95;40.61
44979;BME280;67464;52.438;-1.904;2023-02-26T11:10:54;101424.44;;;10.18;38.28
44979;BME280;67464;52.438;-1.904;2023-02-26T11:13:16;101429.35;;;10.20;40.81
44979;BME280;67464;52.438;-1.904;2023-02-26T11:15:42;101432.63;;;10.97;38.53
44979;BME280;67464;52.438;-1.904;2023-02-26T11:18:12;101428.87;;;11.97;37.63
44979;BME280;67464;52.438;-1.904;2023-02-26T11:20:36;101428.20;;;11.43;36.31
44979;BME280;67464;52.438;-1.904;2023-02-26T11:23:00;101432.32;;;12.58;34.53
44979;BME280;67464;52.438;-1.904;2023-02-26T11:25:27;101431.65;;;13.09;34.51
44979;BME280;67464;52.438;-1.904;2023-02-26T11:27:54;101437.91;;;12.12;35.36
44979;BME280;67464;52.438;-1.904;2023-02-26T11:30:16;101442.13;;;10.77;37.82
44979;BME280;67464;52.438;-1.904;2023-02-26T11:32:41;101449.00;;;8.51;40.06
44979;BME280;67464;52.438;-1.904;2023-02-26T11:35:08;101451.51;;;8.32;44.36
44979;BME280;67464;52.438;-1.904;2023-02-26T11:37:34;101456.86;;;7.04;45.25
44979;BME280;67464;52.438;-1.904;2023-02-26T11:40:02;101458.10;;;7.46;45.00
44979;BME280;67464;52.438;-1.904;2023-02-26T11:42:24;101463.73;;;6.97;43.89
44979;BME280;67464;52.438;-1.904;2023-02-26T11:44:49;101462.37;;;5.91;45.48
44979;BME280;67464;52.438;-1.904;2023-02-26T11:47:15;101462.90;;;6.64;46.24
44979;BME280;67464;52.438;-1.904;2023-02-26T11:49:43;101459.02;;;6.57;46.39
44979;BME280;67464;52.438;-1.904;2023-02-26T11:52:15;101456.25;;;7.07;44.21
44979;BME280;67464;52.438;-1.904;2023-02-26T11:54:34;101466.22;;;5.88;47.02
44979;BME280;67464;52.438;-1.904;2023-02-26T11:57:00;101472.38;;;5.97;46.58
44979;BME280;67464;52.438;-1.904;2023-02-26T11:59:23;101466.39;;;6.39;45.70
44979;BME280;67464;52.438;-1.904;2023-02-26T12:01:48;101467.82;;;7.45;44.35
44979;BME280;67464;52.438;-1.904;2023-02-26T12:04:20;101466.56;;;7.85;45.82
44979;BME280;67464;52.438;-1.904;2023-02-26T12:06:39;101465.26;;;6.70;46.72
44979;BME280;67464;52.438;-1.904;2023-02-26T12:09:05;101472.03;;;7.32;47.47
44979;BME280;67464;52.438;-1.904;2023-02-26T12:11:40;101465.97;;;7.17;45.20
44979;BME280;67464;52.438;-1.904;2023-02-26T12:14:07;101459.42;;;9.07;42.48
44979;BME280;67464;52.438;-1.904;2023-02-26T12:16:27;101458.57;;;11.19;38.62
44979;BME280;67464;52.438;-1.904;2023-02-26T12:18:55;101464.94;;;9.99;36.28
44979;BME280;67464;52.438;-1.904;2023-02-26T12:21:23;101461.90;;;7.75;39.41
44979;BME280;67464;52.438;-1.904;2023-02-26T12:26:13;101463.17;;;8.54;41.53
44979;BME280;67464;52.438;-1.904;2023-02-26T12:28:40;101476.95;;;7.35;42.35
44979;BME280;67464;52.438;-1.904;2023-02-26T12:31:06;101480.42;;;6.90;46.08
44979;BME280;67464;52.438;-1.904;2023-02-26T12:33:28;101479.29;;;7.33;44.24
44979;BME280;67464;52.438;-1.904;2023-02-26T12:35:55;101484.88;;;6.57;46.39
44979;BME280;67464;52.438;-1.904;2023-02-26T12:38:19;101484.79;;;6.53;47.02
44979;BME280;67464;52.438;-1.904;2023-02-26T12:40:52;101490.83;;;7.03;44.36
44979;BME280;67464;52.438;-1.904;2023-02-26T12:43:06;101489.79;;;7.05;46.18
44979;BME280;67464;52.438;-1.904;2023-02-26T12:45:39;101494.62;;;6.31;46.67
44979;BME280;67464;52.438;-1.904;2023-02-26T12:48:06;101497.90;;;7.26;42.47
44979;BME280;67464;52.438;-1.904;2023-02-26T12:50:27;101493.67;;;7.43;41.93
44979;BME280;67464;52.438;-1.904;2023-02-26T12:55:21;101491.35;;;10.30;38.29